Eshowe Airport


Codes: FAES/
Name: Eshowe Airport
City: Eshowe
Country: South Africa
Elevation: 1601 ft.

Photos at Eshowe Airport


   Photos courtesy of SpottingLog. You can add your own sightings and photos by signing up for a free trial today.



No photos found.

Weather at Eshowe Airport


Time (UTC)DescriptionTempratureWindCloud coverageVisibilityPressureHumidity
21-Jun-2024 12:00Few Clouds26°C11 mph, NE20%10000m1022hPa31%
21-Jun-2024 15:00Few Clouds24°C11 mph, NE18%10000m1022hPa36%
21-Jun-2024 18:00Few Clouds20°C9 mph, NE15%10000m1023hPa62%
21-Jun-2024 21:00Clear Sky14°C7 mph, N0%10000m1022hPa77%
22-Jun-2024 00:00Clear Sky14°C7 mph, NW0%10000m1021hPa73%
22-Jun-2024 03:00Clear Sky13°C7 mph, NW0%10000m1021hPa61%
22-Jun-2024 06:00Clear Sky15°C4 mph, NW0%10000m1023hPa41%
22-Jun-2024 09:00Clear Sky25°C11 mph, S0%10000m1024hPa21%
22-Jun-2024 12:00Few Clouds21°C18 mph, S18%10000m1026hPa62%
22-Jun-2024 15:00Light Rain17°C11 mph, S95%10000m1029hPa84%
22-Jun-2024 18:00Light Rain16°C9 mph, S96%10000m1031hPa89%
22-Jun-2024 21:00Light Rain15°C4 mph, SW100%10000m1032hPa92%
23-Jun-2024 00:00Light Rain14°C4 mph, SW100%10000m1032hPa90%
23-Jun-2024 03:00Light Rain14°C2 mph, W97%10000m1031hPa90%
23-Jun-2024 06:00Overcast Clouds15°C2 mph, NW92%10000m1032hPa84%
23-Jun-2024 09:00Clear Sky20°C4 mph, NE2%10000m1031hPa59%
23-Jun-2024 12:00Clear Sky23°C9 mph, NE9%10000m1027hPa43%
23-Jun-2024 15:00Clear Sky18°C9 mph, NE4%10000m1028hPa60%
23-Jun-2024 18:00Clear Sky13°C4 mph, N2%10000m1030hPa82%
23-Jun-2024 21:00Clear Sky13°C4 mph, N0%10000m1030hPa87%
24-Jun-2024 00:00Clear Sky12°C4 mph, N0%10000m1029hPa90%
24-Jun-2024 03:00Clear Sky12°C4 mph, NW0%10000m1029hPa86%
24-Jun-2024 06:00Clear Sky15°C4 mph, NW0%10000m1029hPa69%
24-Jun-2024 09:00Clear Sky24°C7 mph, N0%10000m1027hPa38%
24-Jun-2024 12:00Clear Sky26°C11 mph, NE0%10000m1024hPa31%
24-Jun-2024 15:00Clear Sky22°C11 mph, NE0%10000m1025hPa41%
24-Jun-2024 18:00Clear Sky16°C7 mph, N0%10000m1026hPa70%
24-Jun-2024 21:00Clear Sky15°C4 mph, N0%10000m1026hPa76%
25-Jun-2024 00:00Clear Sky14°C4 mph, NW0%10000m1026hPa71%
25-Jun-2024 03:00Clear Sky13°C4 mph, W0%10000m1027hPa70%
25-Jun-2024 06:00Few Clouds16°C4 mph, W12%10000m1030hPa65%
25-Jun-2024 09:00Broken Clouds20°C11 mph, SW63%10000m1030hPa62%
25-Jun-2024 12:00Light Rain19°C11 mph, S79%10000m1029hPa76%
25-Jun-2024 15:00Light Rain16°C9 mph, SW79%10000m1031hPa88%
25-Jun-2024 18:00Light Rain16°C7 mph, SW89%10000m1032hPa88%
25-Jun-2024 21:00Light Rain16°C7 mph, SW97%10000m1032hPa89%
26-Jun-2024 00:00Light Rain15°C4 mph, SW94%10000m1032hPa88%
26-Jun-2024 03:00Light Rain14°C4 mph, SW96%10000m1032hPa90%
26-Jun-2024 06:00Light Rain14°C4 mph, SW98%10000m1034hPa91%
26-Jun-2024 09:00Light Rain16°C4 mph, SW97%10000m1034hPa86%